Time;durP1;ratioP1;P1;durP2;ratioP2;P2;SDS_P1;SDS_P2;PMS_P1;PMS_P2;Temp;Humidity;BMP_temperature;BMP_pressure;BME280_temperature;BME280_humidity;BME280_pressure;Samples;Min_cycle;Max_cycle;Signal;HPM_P1;HPM_P2
2023/05/10 00:01:02;;;;;;;4.95;4.15;;;15.90;93.70;;;;;;4809610;29;20556;-82
2023/05/10 00:03:28;;;;;;;5.38;4.35;;;15.90;93.90;;;;;;4809464;29;20259;-82
2023/05/10 00:05:53;;;;;;;4.55;4.22;;;15.80;94.20;;;;;;4808970;29;20210;-82
2023/05/10 00:08:19;;;;;;;5.20;4.80;;;15.70;94.70;;;;;;4824805;29;20269;-82
2023/05/10 00:10:45;;;;;;;5.82;4.55;;;15.80;95.10;;;;;;4825592;29;20650;-82
2023/05/10 00:13:10;;;;;;;5.18;4.78;;;15.80;95.10;;;;;;4809889;29;20183;-82
2023/05/10 00:15:36;;;;;;;5.75;4.78;;;15.70;95.20;;;;;;4809728;29;20206;-82
2023/05/10 00:18:01;;;;;;;5.40;4.90;;;15.70;95.60;;;;;;4809100;29;20206;-82
2023/05/10 00:20:27;;;;;;;5.35;4.88;;;15.70;95.60;;;;;;4808923;29;20190;-82
2023/05/10 00:22:53;;;;;;;5.97;4.85;;;15.50;95.80;;;;;;4809847;29;20189;-82
2023/05/10 00:25:21;;;;;;;5.15;4.75;;;15.60;96.10;;;;;;4809233;29;20197;-82
2023/05/10 00:27:47;;;;;;;6.43;4.90;;;15.50;96.70;;;;;;4808430;29;20218;-82
2023/05/10 00:30:12;;;;;;;5.40;5.00;;;15.40;96.50;;;;;;4808759;29;20178;-82
2023/05/10 00:32:38;;;;;;;6.15;4.68;;;15.10;96.80;;;;;;4808688;29;20210;-82
2023/05/10 00:35:04;;;;;;;5.10;4.70;;;15.10;97.70;;;;;;4809391;29;20239;-82
2023/05/10 00:37:30;;;;;;;5.43;4.70;;;14.90;96.80;;;;;;4808868;29;20216;-82
2023/05/10 00:39:55;;;;;;;5.47;4.80;;;14.80;97.50;;;;;;4808870;29;20186;-82
2023/05/10 00:42:22;;;;;;;5.32;4.68;;;14.80;98.10;;;;;;4808838;29;20217;-82
2023/05/10 00:44:49;;;;;;;5.80;4.97;;;14.80;97.60;;;;;;4808664;29;20658;-82
2023/05/10 00:47:15;;;;;;;5.90;4.70;;;14.80;98.00;;;;;;4808725;29;20209;-85
2023/05/10 00:49:41;;;;;;;8.82;5.05;;;14.80;98.10;;;;;;4809016;29;20190;-84
2023/05/10 00:52:08;;;;;;;7.22;4.85;;;14.70;97.60;;;;;;4809405;29;20182;-85
2023/05/10 00:54:34;;;;;;;9.55;5.20;;;14.70;98.50;;;;;;4823634;29;20215;-85
2023/05/10 00:56:59;;;;;;;6.15;5.60;;;14.60;99.10;;;;;;4809276;29;20214;-85
2023/05/10 00:59:25;;;;;;;9.32;6.00;;;14.50;99.90;;;;;;4808720;29;20182;-85
2023/05/10 01:17:45;;;;;;;6.43;4.95;;;14.30;99.90;;;;;;4883814;24;20224;-85
2023/05/10 01:20:20;;;;;;;6.05;5.60;;;14.20;99.90;;;;;;4842282;29;20190;-85
2023/05/10 01:23:21;;;;;;;6.05;5.30;;;14.10;99.90;;;;;;4827737;29;20184;-84
2023/05/10 01:26:08;;;;;;;6.00;5.43;;;14.10;99.90;;;;;;4827710;29;20201;-85
2023/05/10 01:28:49;;;;;;;7.15;5.93;;;14.10;99.90;;;;;;4827260;29;20247;-85
2023/05/10 01:31:53;;;;;;;10.90;6.07;;;13.90;99.90;;;;;;4828103;29;20181;-84
2023/05/10 01:34:34;;;;;;;6.20;5.60;;;13.90;99.90;;;;;;4824259;29;20548;-84
2023/05/10 01:37:09;;;;;;;7.35;6.47;;;13.90;99.90;;;;;;4827663;29;20209;-85
2023/05/10 01:40:30;;;;;;;6.25;5.65;;;13.80;99.90;;;;;;4827019;29;20197;-84
2023/05/10 01:43:02;;;;;;;7.20;6.03;;;13.90;99.90;;;;;;4818764;29;20243;-84
2023/05/10 01:45:37;;;;;;;6.35;5.70;;;14.00;99.90;;;;;;4826572;29;20199;-85
2023/05/10 01:48:09;;;;;;;6.80;6.18;;;14.10;99.90;;;;;;4843369;29;20205;-85
2023/05/10 01:50:37;;;;;;;7.25;6.57;;;14.00;99.90;;;;;;4826752;29;20194;-85
2023/05/10 01:53:07;;;;;;;6.45;5.85;;;14.00;99.90;;;;;;4826921;29;20246;-85
2023/05/10 01:55:39;;;;;;;8.70;6.40;;;14.10;99.90;;;;;;4827901;29;20205;-85
2023/05/10 01:58:13;;;;;;;7.47;6.72;;;14.10;99.90;;;;;;4843616;29;20182;-85
2023/05/10 02:00:43;;;;;;;8.18;6.25;;;14.20;99.90;;;;;;4843019;29;20538;-84
2023/05/10 02:03:13;;;;;;;6.60;6.00;;;13.90;99.90;;;;;;4827281;29;20256;-84
2023/05/10 02:05:41;;;;;;;7.25;6.55;;;13.90;99.90;;;;;;4827594;29;20209;-85
2023/05/10 02:08:07;;;;;;;7.88;6.75;;;13.80;99.90;;;;;;4843141;29;20233;-85
2023/05/10 02:10:37;;;;;;;8.00;6.50;;;13.90;99.90;;;;;;4826421;29;20192;-85
2023/05/10 02:13:03;;;;;;;8.02;7.20;;;13.90;99.90;;;;;;4828584;29;20653;-84
2023/05/10 02:15:33;;;;;;;10.60;7.30;;;13.90;99.90;;;;;;4830463;29;20220;-85
2023/05/10 02:18:02;;;;;;;8.48;6.88;;;13.90;99.90;;;;;;4833207;29;20204;-83
2023/05/10 02:20:29;;;;;;;7.35;6.68;;;14.00;99.90;;;;;;4831416;29;20209;-81
2023/05/10 02:22:56;;;;;;;8.07;6.95;;;14.00;99.90;;;;;;4832076;29;20193;-82
2023/05/10 02:25:24;;;;;;;7.97;6.93;;;14.00;99.90;;;;;;4831753;29;20194;-81
2023/05/10 02:27:51;;;;;;;7.32;6.72;;;14.00;99.90;;;;;;4831388;29;20266;-81
2023/05/10 02:30:24;;;;;;;7.30;6.70;;;14.10;99.90;;;;;;4832187;29;20193;-81
2023/05/10 02:32:51;;;;;;;7.72;6.88;;;14.10;99.90;;;;;;4830893;29;20182;-82
2023/05/10 02:35:17;;;;;;;7.03;6.40;;;14.00;99.90;;;;;;4831636;29;20182;-82
2023/05/10 02:37:46;;;;;;;7.13;6.53;;;14.00;99.90;;;;;;4831060;29;20185;-82
2023/05/10 02:40:12;;;;;;;7.25;6.65;;;14.10;99.90;;;;;;4830605;29;20258;-82
2023/05/10 02:42:42;;;;;;;6.53;5.85;;;14.10;99.90;;;;;;4830716;29;20193;-82
2023/05/10 02:45:12;;;;;;;6.70;6.10;;;14.10;99.90;;;;;;4831232;29;20186;-82
2023/05/10 02:47:38;;;;;;;7.13;6.45;;;14.20;99.90;;;;;;4829377;29;20244;-82
2023/05/10 02:50:04;;;;;;;6.72;6.13;;;14.20;99.90;;;;;;4829127;29;20625;-83
2023/05/10 02:52:36;;;;;;;7.22;6.53;;;14.10;99.90;;;;;;4830291;29;20185;-83
2023/05/10 02:55:04;;;;;;;6.97;6.38;;;14.20;99.90;;;;;;4830684;29;20205;-82
2023/05/10 02:57:34;;;;;;;6.90;6.15;;;14.10;99.90;;;;;;4828961;29;20693;-83
2023/05/10 03:00:01;;;;;;;7.15;6.55;;;14.20;99.90;;;;;;4828821;29;20242;-83
2023/05/10 03:02:27;;;;;;;7.68;6.47;;;14.20;99.90;;;;;;4830239;29;20189;-83
2023/05/10 03:04:53;;;;;;;9.13;6.72;;;14.20;99.90;;;;;;4828317;29;20242;-83
2023/05/10 03:07:21;;;;;;;6.00;5.60;;;14.20;99.90;;;;;;4829983;29;20218;-83
2023/05/10 03:09:48;;;;;;;5.93;5.43;;;14.20;99.90;;;;;;4845580;29;20185;-82
2023/05/10 03:12:25;;;;;;;9.82;5.35;;;14.20;99.90;;;;;;4828944;29;20181;-82
2023/05/10 03:15:07;;;;;;;4.97;4.40;;;14.20;99.90;;;;;;4830276;29;20174;-82
2023/05/10 03:18:11;;;;;;;4.30;4.00;;;14.10;99.90;;;;;;4829344;29;20292;-82
2023/05/10 03:20:45;;;;;;;4.40;4.10;;;14.10;99.90;;;;;;4819217;29;20193;-82
2023/05/10 03:23:17;;;;;;;5.00;4.50;;;14.00;99.90;;;;;;4828957;29;20593;-82
2023/05/10 03:26:04;;;;;;;5.03;4.63;;;14.00;99.90;;;;;;4829786;29;20202;-82
2023/05/10 03:28:31;;;;;;;4.60;4.30;;;14.00;99.90;;;;;;4830174;29;20692;-82
2023/05/10 03:30:58;;;;;;;4.10;3.80;;;14.00;99.90;;;;;;4829933;29;20708;-82
2023/05/10 03:33:23;;;;;;;3.92;3.60;;;14.00;99.90;;;;;;4829951;29;20189;-82
2023/05/10 03:35:49;;;;;;;4.85;3.10;;;13.90;99.90;;;;;;4831747;29;20202;-82
2023/05/10 03:38:15;;;;;;;2.97;2.78;;;14.00;99.90;;;;;;4846886;29;20220;-82
2023/05/10 03:40:40;;;;;;;2.78;2.58;;;14.00;99.90;;;;;;4829867;29;20527;-82
2023/05/10 03:43:06;;;;;;;1.80;1.70;;;14.00;99.90;;;;;;4829071;29;20657;-82
2023/05/10 03:45:35;;;;;;;2.03;1.40;;;14.00;99.90;;;;;;4829391;29;20213;-82
2023/05/10 03:48:01;;;;;;;1.40;1.30;;;14.00;99.90;;;;;;4829822;29;20216;-82
2023/05/10 03:50:26;;;;;;;2.25;1.20;;;14.10;99.90;;;;;;4829516;29;20185;-82
2023/05/10 03:52:52;;;;;;;1.00;1.00;;;14.10;99.90;;;;;;4829800;29;20272;-82
2023/05/10 03:55:22;;;;;;;0.82;0.82;;;14.10;99.90;;;;;;4829091;29;20181;-82
2023/05/10 03:57:49;;;;;;;0.90;0.90;;;14.10;99.90;;;;;;4828848;29;20208;-82
2023/05/10 04:00:15;;;;;;;2.47;0.70;;;14.10;99.90;;;;;;4829446;29;20189;-82
2023/05/10 04:02:40;;;;;;;0.70;0.70;;;14.10;99.90;;;;;;4828885;29;20193;-82
2023/05/10 04:05:07;;;;;;;0.80;0.80;;;14.10;99.90;;;;;;4828550;29;20192;-82
2023/05/10 04:07:32;;;;;;;0.70;0.70;;;14.00;99.90;;;;;;4827920;29;20277;-82
2023/05/10 04:09:58;;;;;;;0.65;0.65;;;14.10;99.90;;;;;;4828196;29;20210;-82
2023/05/10 04:12:24;;;;;;;1.38;0.68;;;14.10;99.90;;;;;;4828284;29;20181;-81
2023/05/10 04:14:50;;;;;;;1.70;0.77;;;14.20;99.90;;;;;;4828363;29;20193;-82
2023/05/10 04:17:16;;;;;;;0.95;0.73;;;14.10;99.90;;;;;;4828674;29;20736;-81
2023/05/10 04:19:42;;;;;;;0.75;0.75;;;14.10;99.90;;;;;;4827923;29;20189;-81
2023/05/10 04:22:08;;;;;;;1.13;0.70;;;14.20;99.90;;;;;;4828943;29;20181;-81
2023/05/10 04:24:33;;;;;;;1.17;0.93;;;14.20;99.90;;;;;;4828376;29;20608;-81
2023/05/10 04:26:59;;;;;;;5.70;0.85;;;14.20;99.90;;;;;;4828824;29;20213;-82
2023/05/10 04:29:25;;;;;;;1.05;0.70;;;14.20;99.90;;;;;;4828396;29;20177;-82
2023/05/10 04:31:54;;;;;;;0.98;0.80;;;14.10;99.90;;;;;;4828442;29;20231;-81
2023/05/10 04:34:21;;;;;;;0.57;0.57;;;14.10;99.90;;;;;;4828733;29;20186;-81
2023/05/10 04:36:46;;;;;;;0.75;0.68;;;14.10;99.90;;;;;;4828005;29;20269;-81
2023/05/10 04:39:13;;;;;;;0.63;0.60;;;14.10;99.90;;;;;;4828240;29;20213;-81
2023/05/10 04:41:39;;;;;;;0.63;0.60;;;14.10;99.90;;;;;;4828190;29;20201;-81
2023/05/10 04:44:04;;;;;;;0.57;0.57;;;14.10;99.90;;;;;;4829007;29;20181;-81
2023/05/10 04:46:30;;;;;;;3.78;0.82;;;14.20;99.90;;;;;;4829564;29;20206;-81
2023/05/10 04:48:55;;;;;;;0.60;0.60;;;14.10;99.90;;;;;;4828204;29;20210;-81
2023/05/10 04:51:21;;;;;;;0.82;0.60;;;14.10;99.90;;;;;;4828313;29;20178;-82
2023/05/10 04:53:50;;;;;;;0.73;0.73;;;14.20;99.90;;;;;;4828709;29;20182;-82
2023/05/10 04:56:16;;;;;;;0.98;0.50;;;14.20;99.90;;;;;;4828367;29;20201;-83
2023/05/10 04:58:42;;;;;;;1.00;0.70;;;14.10;99.90;;;;;;4828774;29;20679;-82
2023/05/10 05:01:08;;;;;;;0.95;0.70;;;14.30;99.90;;;;;;4828417;29;20189;-83
2023/05/10 05:03:34;;;;;;;0.60;0.60;;;14.30;99.90;;;;;;4831059;29;20224;-82
2023/05/10 05:05:59;;;;;;;1.10;0.52;;;14.30;99.90;;;;;;4827094;29;20288;-82
2023/05/10 05:08:29;;;;;;;0.52;0.47;;;14.30;99.90;;;;;;4827269;29;20265;-83
2023/05/10 05:10:55;;;;;;;0.55;0.50;;;14.30;99.90;;;;;;4826608;29;20178;-83
2023/05/10 05:13:22;;;;;;;0.40;0.40;;;14.40;99.90;;;;;;4842276;29;20186;-85
2023/05/10 05:15:48;;;;;;;3.05;0.70;;;14.50;99.90;;;;;;4826790;29;20621;-83
2023/05/10 05:18:13;;;;;;;0.70;0.43;;;14.50;99.90;;;;;;4827023;29;20212;-82
2023/05/10 05:20:39;;;;;;;0.43;0.28;;;14.50;99.90;;;;;;4861526;29;20195;-81
2023/05/10 05:23:08;;;;;;;0.43;0.43;;;14.40;99.90;;;;;;4827475;29;20193;-82
2023/05/10 05:25:34;;;;;;;0.47;0.47;;;14.40;99.90;;;;;;4828487;29;20261;-82
2023/05/10 05:27:59;;;;;;;2.05;0.60;;;14.50;99.90;;;;;;4829099;29;20304;-82
2023/05/10 05:30:25;;;;;;;1.05;0.70;;;14.50;99.90;;;;;;4828661;29;20197;-81
2023/05/10 05:32:51;;;;;;;1.08;0.55;;;14.40;99.90;;;;;;4828057;29;20327;-81
2023/05/10 05:35:16;;;;;;;0.60;0.60;;;14.50;99.90;;;;;;4828976;29;20560;-81
2023/05/10 05:37:42;;;;;;;0.57;0.50;;;14.50;99.90;;;;;;4828012;29;20181;-82
2023/05/10 05:40:08;;;;;;;0.47;0.43;;;14.50;99.90;;;;;;4828785;29;20625;-81
2023/05/10 05:42:34;;;;;;;2.22;0.32;;;14.60;99.90;;;;;;4844622;29;20277;-81
2023/05/10 05:44:59;;;;;;;0.30;0.30;;;14.60;99.90;;;;;;4827732;29;20186;-83
2023/05/10 05:47:25;;;;;;;1.15;0.30;;;14.60;99.90;;;;;;4829014;29;20248;-82
2023/05/10 05:49:51;;;;;;;0.28;0.28;;;14.60;99.90;;;;;;4831428;29;20216;-82
2023/05/10 05:52:17;;;;;;;0.22;0.20;;;14.60;99.90;;;;;;4831501;29;20181;-82
2023/05/10 05:54:44;;;;;;;0.25;0.25;;;14.50;99.90;;;;;;4847440;29;20207;-82
2023/05/10 05:57:10;;;;;;;0.35;0.35;;;14.50;99.90;;;;;;4831327;29;20229;-83
2023/05/10 05:59:43;;;;;;;0.22;0.22;;;14.50;99.90;;;;;;4830898;29;20695;-82
2023/05/10 06:02:10;;;;;;;2.30;0.40;;;14.60;99.90;;;;;;4831271;29;20177;-82
2023/05/10 06:04:35;;;;;;;0.57;0.30;;;14.60;99.90;;;;;;4829254;29;20229;-83
2023/05/10 06:07:01;;;;;;;0.35;0.25;;;14.80;99.90;;;;;;4829509;29;20212;-83
2023/05/10 06:09:27;;;;;;;0.30;0.30;;;14.90;99.90;;;;;;4829755;29;20181;-82
2023/05/10 06:11:52;;;;;;;0.15;0.15;;;15.00;99.90;;;;;;4830423;29;20188;-82
2023/05/10 06:14:20;;;;;;;0.40;0.40;;;15.10;99.90;;;;;;4830061;29;20536;-82
2023/05/10 06:16:46;;;;;;;0.55;0.40;;;15.20;99.90;;;;;;4829296;29;20226;-82
2023/05/10 06:19:12;;;;;;;0.45;0.45;;;15.20;99.90;;;;;;4829849;29;20234;-82
2023/05/10 06:21:38;;;;;;;0.80;0.40;;;15.40;99.90;;;;;;4830615;29;20189;-82
2023/05/10 06:24:04;;;;;;;0.30;0.30;;;15.50;99.90;;;;;;4829309;29;20233;-82
2023/05/10 06:26:30;;;;;;;3.67;0.70;;;15.60;99.90;;;;;;4845915;29;20203;-82
2023/05/10 06:28:55;;;;;;;0.20;0.20;;;15.80;99.90;;;;;;4829327;29;20214;-82
2023/05/10 06:31:21;;;;;;;0.30;0.30;;;16.00;99.90;;;;;;4829212;29;20181;-82
2023/05/10 06:33:47;;;;;;;2.38;0.45;;;16.10;99.90;;;;;;4829240;29;20253;-82
2023/05/10 06:36:13;;;;;;;1.13;0.40;;;16.40;99.90;;;;;;4829169;29;20620;-82
2023/05/10 06:38:39;;;;;;;0.63;0.60;;;16.40;99.90;;;;;;4828789;29;20190;-82
2023/05/10 06:41:05;;;;;;;1.02;0.45;;;16.40;99.90;;;;;;4829549;29;20190;-82
2023/05/10 06:43:31;;;;;;;0.88;0.40;;;16.30;99.90;;;;;;4829663;29;20189;-82
2023/05/10 06:45:57;;;;;;;0.40;0.40;;;16.30;99.90;;;;;;4829227;29;20289;-82
2023/05/10 06:48:23;;;;;;;0.38;0.38;;;16.20;99.90;;;;;;4829375;29;20658;-82
2023/05/10 06:50:48;;;;;;;0.50;0.50;;;16.30;99.90;;;;;;4828993;29;20184;-82
2023/05/10 06:53:15;;;;;;;0.85;0.47;;;16.50;99.90;;;;;;4828850;29;20178;-82
2023/05/10 06:55:40;;;;;;;0.60;0.60;;;16.60;99.90;;;;;;4828874;29;20198;-82
2023/05/10 06:58:06;;;;;;;0.60;0.60;;;16.70;99.90;;;;;;4827799;29;20194;-82
2023/05/10 07:00:32;;;;;;;0.50;0.50;;;16.90;99.90;;;;;;4845528;29;20679;-82
2023/05/10 07:02:59;;;;;;;0.98;0.40;;;17.00;99.90;;;;;;4842556;29;20276;-86
2023/05/10 07:05:27;;;;;;;0.68;0.68;;;17.30;99.90;;;;;;4822684;29;20225;-87
2023/05/10 07:07:53;;;;;;;0.70;0.70;;;17.80;99.90;;;;;;4818230;29;20292;-86
2023/05/10 07:10:18;;;;;;;0.93;0.82;;;18.20;99.90;;;;;;4823889;29;20755;-86
2023/05/10 07:12:44;;;;;;;0.90;0.90;;;18.40;99.90;;;;;;4835923;29;20271;-86
2023/05/10 07:15:10;;;;;;;0.90;0.90;;;18.40;99.90;;;;;;4817057;29;20178;-86
2023/05/10 07:17:35;;;;;;;2.08;0.80;;;18.40;99.90;;;;;;4809749;29;20225;-86
2023/05/10 07:20:03;;;;;;;0.98;0.63;;;18.20;99.90;;;;;;4809968;29;20277;-86
2023/05/10 07:22:29;;;;;;;1.40;0.85;;;18.00;99.90;;;;;;4826871;29;20177;-86
2023/05/10 07:24:54;;;;;;;0.80;0.80;;;18.00;99.90;;;;;;4810059;29;20186;-86
2023/05/10 07:27:20;;;;;;;0.63;0.63;;;18.10;99.90;;;;;;4809651;29;20266;-86
2023/05/10 07:29:46;;;;;;;0.70;0.63;;;18.20;99.90;;;;;;4809529;29;20186;-86
2023/05/10 07:32:14;;;;;;;0.73;0.73;;;18.40;99.90;;;;;;4813117;29;20182;-86
2023/05/10 07:34:40;;;;;;;2.35;0.70;;;18.70;99.90;;;;;;4820035;29;20175;-86
2023/05/10 07:37:06;;;;;;;2.08;0.80;;;18.80;99.90;;;;;;4820219;29;20291;-86
2023/05/10 07:39:32;;;;;;;1.88;0.85;;;18.70;99.90;;;;;;4835445;29;20235;-86
2023/05/10 07:41:57;;;;;;;0.85;0.77;;;19.00;99.90;;;;;;4820352;29;20186;-86
2023/05/10 07:44:23;;;;;;;5.18;0.98;;;19.10;99.90;;;;;;4827803;29;20198;-86
2023/05/10 07:46:49;;;;;;;3.20;0.90;;;19.20;99.90;;;;;;4828233;29;20300;-86
2023/05/10 07:49:14;;;;;;;0.65;0.65;;;19.10;99.90;;;;;;4827661;29;20190;-86
2023/05/10 07:51:41;;;;;;;1.13;0.90;;;19.40;99.90;;;;;;4828155;29;20178;-86
2023/05/10 07:54:07;;;;;;;1.48;0.90;;;19.60;99.60;;;;;;4827548;29;20561;-86
2023/05/10 07:56:34;;;;;;;0.82;0.82;;;19.40;99.70;;;;;;4827475;29;20568;-86
2023/05/10 07:59:00;;;;;;;0.52;0.52;;;19.30;99.30;;;;;;4827194;29;20192;-86
2023/05/10 08:01:29;;;;;;;1.63;0.80;;;19.60;98.90;;;;;;4827432;29;20200;-86
2023/05/10 08:03:55;;;;;;;1.63;0.80;;;19.60;98.90;;;;;;4827901;29;20181;-86
2023/05/10 08:06:21;;;;;;;1.55;0.80;;;19.30;98.90;;;;;;4843664;29;20554;-86
2023/05/10 08:08:50;;;;;;;2.53;0.70;;;19.00;99.40;;;;;;4843572;29;20217;-86
2023/05/10 08:11:20;;;;;;;1.67;0.93;;;18.90;99.60;;;;;;4827228;29;20197;-86
2023/05/10 08:13:46;;;;;;;0.70;0.70;;;19.00;99.10;;;;;;4827884;29;20182;-86
2023/05/10 08:16:12;;;;;;;1.05;1.05;;;19.10;99.50;;;;;;4820518;29;20573;-86
2023/05/10 08:18:38;;;;;;;1.88;1.00;;;19.10;98.60;;;;;;4835154;29;20200;-86
2023/05/10 08:21:04;;;;;;;1.08;1.00;;;19.20;98.20;;;;;;4818472;29;20261;-86
2023/05/10 08:23:30;;;;;;;1.10;0.93;;;19.20;97.50;;;;;;4816753;29;20213;-86
2023/05/10 08:25:56;;;;;;;0.90;0.90;;;19.00;97.80;;;;;;4817509;29;20232;-86
2023/05/10 08:28:21;;;;;;;2.83;1.10;;;18.80;97.30;;;;;;4816162;29;20580;-86
2023/05/10 08:30:47;;;;;;;1.52;0.90;;;18.50;99.20;;;;;;4834785;29;20173;-86
2023/05/10 08:33:13;;;;;;;2.08;1.30;;;18.40;98.90;;;;;;4817141;29;20185;-85
2023/05/10 08:35:38;;;;;;;2.90;1.15;;;18.30;99.30;;;;;;4816841;29;20198;-85
2023/05/10 08:38:04;;;;;;;2.75;1.13;;;18.40;98.90;;;;;;4834582;29;20186;-85
2023/05/10 08:40:31;;;;;;;4.70;1.40;;;18.50;98.60;;;;;;4818079;29;20627;-85
2023/05/10 08:43:07;;;;;;;5.20;1.30;;;18.80;97.80;;;;;;4816923;29;20179;-85
2023/05/10 08:45:35;;;;;;;2.47;1.35;;;19.00;98.00;;;;;;4816620;29;20212;-85
2023/05/10 08:48:06;;;;;;;1.95;1.27;;;19.30;98.30;;;;;;4816501;29;20292;-85
2023/05/10 08:50:32;;;;;;;2.15;1.30;;;19.40;97.20;;;;;;4815790;29;20177;-85
2023/05/10 08:53:05;;;;;;;1.75;1.40;;;19.50;97.10;;;;;;4816976;29;20178;-85
2023/05/10 08:55:33;;;;;;;4.80;1.45;;;19.40;97.10;;;;;;4816047;29;20646;-85
2023/05/10 08:57:59;;;;;;;1.52;1.02;;;19.20;96.40;;;;;;4818848;29;20732;-85
2023/05/10 09:00:26;;;;;;;3.50;1.80;;;19.20;96.90;;;;;;4815799;29;20182;-85
2023/05/10 09:02:52;;;;;;;12.48;11.35;;;19.00;97.50;;;;;;4817488;29;20190;-85
2023/05/10 09:05:17;;;;;;;2.95;2.67;;;18.80;98.30;;;;;;4818130;29;20178;-85
2023/05/10 09:07:43;;;;;;;3.67;1.35;;;18.80;97.90;;;;;;4817963;29;20206;-85
2023/05/10 09:10:10;;;;;;;2.88;1.70;;;18.60;98.20;;;;;;4828443;29;20174;-85
2023/05/10 09:12:36;;;;;;;4.53;1.98;;;18.70;98.80;;;;;;4808235;29;20558;-85
2023/05/10 09:15:05;;;;;;;4.00;1.70;;;18.90;98.60;;;;;;4813018;29;20178;-85
2023/05/10 09:17:31;;;;;;;1.45;1.35;;;19.10;98.60;;;;;;4816597;29;20230;-85
2023/05/10 09:20:02;;;;;;;1.23;1.00;;;19.40;97.90;;;;;;4815624;29;20206;-85
2023/05/10 09:22:27;;;;;;;1.95;0.90;;;19.80;97.00;;;;;;4816732;29;20269;-85
2023/05/10 09:25:10;;;;;;;0.95;0.90;;;20.00;96.90;;;;;;4814319;29;20268;-85
2023/05/10 09:27:38;;;;;;;0.60;0.60;;;20.40;96.00;;;;;;4815583;29;20347;-85
2023/05/10 09:30:05;;;;;;;1.98;0.93;;;20.40;94.60;;;;;;4819172;29;20181;-85
2023/05/10 09:32:44;;;;;;;1.00;0.88;;;20.50;95.10;;;;;;4837300;29;20181;-85
2023/05/10 09:35:12;;;;;;;1.60;0.98;;;20.50;95.00;;;;;;4821882;29;20222;-85
2023/05/10 09:37:42;;;;;;;1.70;1.17;;;20.70;95.50;;;;;;4820636;29;20329;-85
2023/05/10 09:40:13;;;;;;;2.25;0.90;;;20.80;94.80;;;;;;4837153;29;20245;-85
2023/05/10 09:42:38;;;;;;;2.58;1.20;;;20.70;94.60;;;;;;4819598;29;20193;-85
2023/05/10 09:45:05;;;;;;;0.98;0.75;;;21.00;95.00;;;;;;4812694;29;20190;-85
2023/05/10 09:47:37;;;;;;;0.82;0.80;;;21.20;93.60;;;;;;4813045;29;20301;-85
2023/05/10 09:50:04;;;;;;;1.38;1.30;;;21.20;92.20;;;;;;4819347;29;20185;-85
2023/05/10 09:52:45;;;;;;;0.90;0.85;;;21.10;92.00;;;;;;4821110;29;20178;-85
2023/05/10 09:55:10;;;;;;;2.88;0.98;;;21.10;92.00;;;;;;4821084;29;20285;-85
2023/05/10 09:57:36;;;;;;;7.85;1.25;;;20.90;91.50;;;;;;4837104;29;20347;-85
2023/05/10 10:00:04;;;;;;;5.60;1.17;;;20.50;92.70;;;;;;4819562;29;20189;-85
2023/05/10 10:02:30;;;;;;;1.75;1.15;;;20.20;93.30;;;;;;4818991;29;20182;-85
2023/05/10 10:04:56;;;;;;;1.98;1.00;;;20.10;94.60;;;;;;4820801;29;20242;-85
2023/05/10 10:07:24;;;;;;;1.42;0.80;;;20.10;95.00;;;;;;4815319;29;20217;-85
2023/05/10 10:09:50;;;;;;;3.33;1.40;;;19.80;95.00;;;;;;4827413;29;20243;-85
2023/05/10 10:12:17;;;;;;;1.55;1.27;;;19.50;95.40;;;;;;4811110;29;20186;-85
2023/05/10 10:14:43;;;;;;;1.50;1.30;;;19.20;95.50;;;;;;4827045;29;20206;-85
2023/05/10 10:17:09;;;;;;;4.47;1.55;;;18.90;96.00;;;;;;4826922;29;20214;-85
2023/05/10 10:19:35;;;;;;;1.45;1.45;;;18.40;96.90;;;;;;4811091;29;20187;-85
2023/05/10 10:22:01;;;;;;;1.92;1.55;;;18.00;98.10;;;;;;4811177;29;20549;-85
2023/05/10 10:24:26;;;;;;;3.80;1.77;;;17.80;98.80;;;;;;4811029;29;20211;-85
2023/05/10 10:26:55;;;;;;;2.17;1.92;;;17.50;99.90;;;;;;4827490;29;20310;-85
2023/05/10 10:29:44;;;;;;;4.40;2.03;;;17.50;99.90;;;;;;4811321;29;20249;-85
2023/05/10 10:32:24;;;;;;;2.20;2.00;;;17.50;99.90;;;;;;4811413;29;20275;-85
2023/05/10 10:34:50;;;;;;;2.30;2.13;;;17.70;99.90;;;;;;4809789;29;20213;-85
2023/05/10 10:37:16;;;;;;;2.10;2.00;;;18.00;99.90;;;;;;4814136;29;20245;-85
2023/05/10 10:39:41;;;;;;;2.40;2.10;;;18.30;99.90;;;;;;4818938;29;20265;-85
2023/05/10 10:42:07;;;;;;;2.03;1.90;;;18.70;99.90;;;;;;4819933;29;20189;-85
2023/05/10 10:44:36;;;;;;;2.95;1.95;;;19.10;99.90;;;;;;4830522;29;20185;-85
2023/05/10 10:47:18;;;;;;;2.33;2.08;;;19.20;99.90;;;;;;4820678;29;20238;-85
2023/05/10 10:50:00;;;;;;;2.28;2.08;;;19.30;99.10;;;;;;4834529;29;20271;-85
2023/05/10 10:52:41;;;;;;;2.10;1.90;;;19.50;99.00;;;;;;4834209;29;20683;-85
2023/05/10 10:55:14;;;;;;;1.60;1.60;;;19.30;99.30;;;;;;4817002;29;20184;-85
2023/05/10 10:57:40;;;;;;;1.65;1.55;;;19.30;99.40;;;;;;4809956;29;20182;-85
2023/05/10 11:00:26;;;;;;;2.38;2.20;;;19.30;99.40;;;;;;4810338;29;20285;-85
2023/05/10 11:03:06;;;;;;;2.40;2.20;;;19.10;99.90;;;;;;4826404;29;20190;-85
2023/05/10 11:05:39;;;;;;;3.15;2.95;;;19.10;99.80;;;;;;4810820;29;20203;-85
2023/05/10 11:08:26;;;;;;;1.40;1.20;;;19.20;99.50;;;;;;4810695;29;20202;-85
2023/05/10 11:11:06;;;;;;;1.30;1.30;;;19.10;99.50;;;;;;4810774;29;20610;-85
2023/05/10 11:13:40;;;;;;;1.23;1.23;;;19.10;99.90;;;;;;4810486;29;20178;-85
2023/05/10 11:16:17;;;;;;;1.15;1.15;;;19.10;99.90;;;;;;4810105;29;20270;-85
2023/05/10 11:19:04;;;;;;;1.10;1.10;;;19.40;99.90;;;;;;4810325;29;20661;-85
2023/05/10 11:21:43;;;;;;;3.13;2.92;;;19.50;99.20;;;;;;4810429;29;20197;-85
2023/05/10 11:24:14;;;;;;;3.78;3.50;;;19.70;98.50;;;;;;4810165;29;20193;-85
2023/05/10 11:26:40;;;;;;;5.65;5.25;;;19.80;98.40;;;;;;4810035;29;20225;-85
2023/05/10 11:29:06;;;;;;;3.70;3.50;;;19.70;98.20;;;;;;4810256;29;20222;-85
2023/05/10 11:31:32;;;;;;;2.10;1.92;;;19.60;98.70;;;;;;4809606;29;20189;-85
2023/05/10 11:33:59;;;;;;;3.10;2.90;;;19.60;98.40;;;;;;4809971;29;20187;-85
2023/05/10 11:36:28;;;;;;;3.83;3.53;;;19.90;98.50;;;;;;4809383;29;20228;-85
2023/05/10 11:38:55;;;;;;;3.20;2.70;;;19.80;98.30;;;;;;4810321;29;20190;-85
2023/05/10 11:41:23;;;;;;;4.38;2.35;;;20.00;98.60;;;;;;4812386;29;20654;-84
2023/05/10 11:43:53;;;;;;;1.90;1.80;;;20.10;97.90;;;;;;4812774;29;20257;-85
2023/05/10 11:46:20;;;;;;;1.95;1.80;;;20.10;97.70;;;;;;4812181;29;20634;-85
2023/05/10 11:48:49;;;;;;;2.13;2.03;;;20.10;97.10;;;;;;4811245;29;20218;-85
2023/05/10 11:51:15;;;;;;;1.80;1.70;;;20.20;96.70;;;;;;4811785;29;20600;-85
2023/05/10 11:53:41;;;;;;;1.50;1.50;;;20.70;96.60;;;;;;4809600;29;20185;-85
2023/05/10 11:56:09;;;;;;;1.80;1.70;;;21.00;95.50;;;;;;4809660;29;20210;-85
2023/05/10 11:58:36;;;;;;;2.10;2.00;;;21.20;95.20;;;;;;4809980;29;20765;-86
2023/05/10 12:01:04;;;;;;;3.58;2.10;;;21.30;94.40;;;;;;4824656;29;20189;-85
2023/05/10 12:03:30;;;;;;;1.85;1.75;;;21.80;94.00;;;;;;4827820;29;20197;-85
2023/05/10 12:05:57;;;;;;;3.17;2.05;;;22.20;93.90;;;;;;4828038;29;20209;-85
2023/05/10 12:08:24;;;;;;;1.65;1.55;;;22.40;93.30;;;;;;4827072;29;20220;-85
2023/05/10 12:10:50;;;;;;;2.95;1.52;;;22.50;91.90;;;;;;4827276;29;20211;-85
2023/05/10 12:13:17;;;;;;;2.75;1.58;;;22.50;92.10;;;;;;4827492;29;20186;-85
2023/05/10 12:15:43;;;;;;;1.50;1.50;;;22.10;91.60;;;;;;4827379;29;20209;-85
2023/05/10 12:18:13;;;;;;;3.13;1.70;;;22.10;91.40;;;;;;4827361;29;20202;-85
2023/05/10 12:20:40;;;;;;;1.67;1.55;;;22.00;90.70;;;;;;4829672;29;20563;-85
2023/05/10 12:23:07;;;;;;;3.72;1.50;;;21.90;91.80;;;;;;4858073;29;20212;-85
2023/05/10 12:25:35;;;;;;;5.63;1.45;;;21.90;92.00;;;;;;4827613;29;20220;-85
2023/05/10 12:28:04;;;;;;;1.40;1.02;;;21.90;90.30;;;;;;4827124;29;20688;-85
2023/05/10 12:30:31;;;;;;;1.00;1.00;;;22.20;90.20;;;;;;4827740;29;20177;-85
2023/05/10 12:33:04;;;;;;;1.20;1.10;;;22.40;89.80;;;;;;4827178;29;20197;-85
2023/05/10 12:35:31;;;;;;;4.85;1.10;;;22.60;86.90;;;;;;4851701;29;20241;-85
2023/05/10 12:37:56;;;;;;;2.05;1.00;;;22.60;88.50;;;;;;4817987;29;20276;-85
2023/05/10 12:40:22;;;;;;;5.43;1.13;;;22.90;87.80;;;;;;4820003;29;20275;-85
2023/05/10 12:42:48;;;;;;;1.20;1.15;;;23.20;86.40;;;;;;4843174;29;20614;-85
2023/05/10 12:45:14;;;;;;;2.42;1.20;;;23.40;85.90;;;;;;4820818;29;20182;-86
2023/05/10 12:47:40;;;;;;;1.02;1.02;;;23.20;84.00;;;;;;4817641;29;20315;-85
2023/05/10 12:50:06;;;;;;;1.38;1.30;;;23.00;84.70;;;;;;4813258;29;20190;-86
2023/05/10 12:52:32;;;;;;;0.98;0.98;;;22.80;84.20;;;;;;4808450;29;20312;-85
2023/05/10 12:55:00;;;;;;;1.58;1.45;;;22.80;86.70;;;;;;4809039;29;20228;-85
2023/05/10 12:57:27;;;;;;;1.27;1.17;;;22.80;86.60;;;;;;4807511;29;20201;-85
2023/05/10 12:59:53;;;;;;;2.08;1.10;;;22.60;86.00;;;;;;4822300;29;20190;-85
2023/05/10 13:02:20;;;;;;;2.53;1.15;;;22.50;85.90;;;;;;4819852;29;20717;-85
2023/05/10 13:04:46;;;;;;;1.33;1.10;;;22.60;86.70;;;;;;4817084;29;20200;-85
2023/05/10 13:07:12;;;;;;;1.70;1.40;;;22.50;85.80;;;;;;4815912;29;20201;-85